createdAt,value
2023-12-30T00:01:32.608Z,100179.75
2023-12-30T00:04:00.619Z,100179.09
2023-12-30T00:06:30.321Z,100180.28
2023-12-30T00:08:58.066Z,100175.03
2023-12-30T00:11:26.711Z,100180.47
2023-12-30T00:13:54.872Z,100184.16
2023-12-30T00:16:22.715Z,100195.47
2023-12-30T00:18:50.677Z,100189.69
2023-12-30T00:21:20.848Z,100190.00
2023-12-30T00:23:50.091Z,100188.06
2023-12-30T00:26:21.591Z,100182.91
2023-12-30T00:29:01.563Z,100183.13
2023-12-30T00:31:30.923Z,100185.78
2023-12-30T00:34:00.598Z,100188.97
2023-12-30T00:36:29.038Z,100188.19
2023-12-30T00:38:58.497Z,100178.91
2023-12-30T00:41:27.792Z,100177.88
2023-12-30T00:43:55.606Z,100184.69
2023-12-30T00:46:23.677Z,100188.94
2023-12-30T00:48:57.221Z,100190.16
2023-12-30T00:51:27.201Z,100199.75
2023-12-30T00:53:55.612Z,100198.72
2023-12-30T00:56:25.008Z,100195.13
2023-12-30T00:58:52.981Z,100195.84
2023-12-30T01:01:21.026Z,100193.97
2023-12-30T01:03:49.338Z,100197.81
2023-12-30T01:06:17.544Z,100198.59
2023-12-30T01:08:45.557Z,100198.88
2023-12-30T01:11:13.769Z,100206.00
2023-12-30T01:13:43.383Z,100207.25
2023-12-30T01:16:11.237Z,100213.81
2023-12-30T01:18:39.498Z,100219.09
2023-12-30T01:21:07.408Z,100228.91
2023-12-30T01:23:35.773Z,100233.53
2023-12-30T01:26:03.792Z,100225.25
2023-12-30T01:28:32.873Z,100234.66
2023-12-30T01:31:02.188Z,100239.00
2023-12-30T01:33:30.420Z,100247.03
2023-12-30T01:36:00.042Z,100247.59
2023-12-30T01:38:27.757Z,100257.53
2023-12-30T01:40:56.803Z,100247.44
2023-12-30T01:43:26.622Z,100239.47
2023-12-30T01:45:58.572Z,100242.63
2023-12-30T01:48:29.835Z,100251.88
2023-12-30T01:50:59.565Z,100251.44
2023-12-30T01:53:29.016Z,100237.91
2023-12-30T01:55:58.274Z,100241.44
2023-12-30T01:58:27.548Z,100236.63
2023-12-30T02:00:58.095Z,100230.47
2023-12-30T02:03:29.248Z,100232.88
2023-12-30T02:05:58.256Z,100251.53
2023-12-30T02:08:27.704Z,100258.50
2023-12-30T02:10:56.586Z,100256.16
2023-12-30T02:13:26.434Z,100256.28
2023-12-30T02:15:54.996Z,100260.31
2023-12-30T02:18:23.370Z,100246.28
2023-12-30T02:20:53.892Z,100244.66
2023-12-30T02:23:23.499Z,100236.44
2023-12-30T02:25:52.188Z,100247.66
2023-12-30T02:28:21.392Z,100239.19
2023-12-30T02:30:50.385Z,100238.72
2023-12-30T02:33:19.021Z,100246.69
2023-12-30T02:35:48.465Z,100256.50
2023-12-30T02:38:16.925Z,100262.41
2023-12-30T02:40:46.945Z,100253.59
2023-12-30T02:43:15.687Z,100249.81
2023-12-30T02:45:44.469Z,100243.66
2023-12-30T02:48:12.902Z,100245.00
2023-12-30T02:50:41.592Z,100255.00
2023-12-30T02:53:09.873Z,100266.13
2023-12-30T02:55:38.240Z,100258.09
2023-12-30T02:58:08.818Z,100265.25
2023-12-30T03:00:38.329Z,100259.97
2023-12-30T03:03:07.081Z,100257.53
2023-12-30T03:05:36.537Z,100259.22
2023-12-30T03:08:06.220Z,100276.53
2023-12-30T03:10:35.547Z,100281.75
2023-12-30T03:13:05.466Z,100274.75
2023-12-30T03:15:36.930Z,100270.75
2023-12-30T03:18:05.798Z,100277.41
2023-12-30T03:20:34.636Z,100271.78
2023-12-30T03:23:03.238Z,100268.63
2023-12-30T03:25:34.618Z,100267.00
2023-12-30T03:28:03.821Z,100265.16
2023-12-30T03:30:33.016Z,100263.47
2023-12-30T03:33:02.953Z,100272.47
2023-12-30T03:35:33.422Z,100271.03
2023-12-30T03:38:01.910Z,100260.31
2023-12-30T03:40:30.197Z,100275.28
2023-12-30T03:42:59.895Z,100272.50
2023-12-30T03:45:28.596Z,100262.78
2023-12-30T03:47:56.996Z,100268.53
2023-12-30T03:50:27.892Z,100261.16
2023-12-30T03:52:56.174Z,100267.47
2023-12-30T03:55:24.587Z,100266.78
2023-12-30T03:57:54.985Z,100258.94
2023-12-30T04:00:24.094Z,100255.38
2023-12-30T04:02:52.306Z,100249.88
2023-12-30T04:05:20.881Z,100261.22
2023-12-30T04:07:51.580Z,100245.50
2023-12-30T04:10:20.680Z,100248.47
2023-12-30T04:12:49.825Z,100252.19
2023-12-30T04:15:18.258Z,100268.44
2023-12-30T04:17:47.066Z,100257.06
2023-12-30T04:20:15.958Z,100255.13
2023-12-30T04:22:44.400Z,100256.25
2023-12-30T04:25:15.344Z,100260.56
2023-12-30T04:27:44.839Z,100263.47
2023-12-30T04:30:14.350Z,100261.09
2023-12-30T04:32:43.224Z,100265.03
2023-12-30T04:35:12.747Z,100271.09
2023-12-30T04:37:40.811Z,100273.13
2023-12-30T04:40:10.220Z,100273.22
2023-12-30T04:42:40.647Z,100282.31
2023-12-30T04:45:13.878Z,100281.47
2023-12-30T04:47:43.023Z,100295.44
2023-12-30T04:50:11.420Z,100301.00
2023-12-30T04:52:39.516Z,100295.75
2023-12-30T04:55:08.990Z,100296.47
2023-12-30T04:57:37.069Z,100296.41
2023-12-30T05:00:08.808Z,100290.72
2023-12-30T05:02:37.223Z,100290.75
2023-12-30T05:05:07.238Z,100280.88
2023-12-30T05:07:35.682Z,100291.31
2023-12-30T05:10:04.564Z,100288.63
2023-12-30T05:12:32.869Z,100292.41
2023-12-30T05:15:01.060Z,100285.63
2023-12-30T05:17:33.855Z,100275.25
2023-12-30T05:20:02.292Z,100286.63
2023-12-30T05:22:30.914Z,100292.28
2023-12-30T05:24:59.243Z,100289.88
2023-12-30T05:27:27.501Z,100297.31
2023-12-30T05:29:56.252Z,100308.59
2023-12-30T05:32:24.527Z,100312.88
2023-12-30T05:34:54.969Z,100297.66
2023-12-30T05:37:23.364Z,100305.09
2023-12-30T05:39:52.289Z,100304.06
2023-12-30T05:42:20.628Z,100297.91
2023-12-30T05:44:49.410Z,100289.94
2023-12-30T05:47:18.272Z,100292.66
2023-12-30T05:49:47.601Z,100292.66
2023-12-30T05:52:17.289Z,100295.47
2023-12-30T05:54:46.695Z,100287.03
2023-12-30T05:57:16.168Z,100293.47
2023-12-30T05:59:44.436Z,100301.56
2023-12-30T06:02:13.172Z,100296.97
2023-12-30T06:04:42.529Z,100294.72
2023-12-30T06:07:12.000Z,100307.63
2023-12-30T06:09:43.050Z,100313.31
2023-12-30T06:12:11.508Z,100319.47
2023-12-30T06:14:41.680Z,100327.31
2023-12-30T06:17:10.000Z,100335.69
2023-12-30T06:19:38.886Z,100343.56
2023-12-30T06:22:07.795Z,100333.84
2023-12-30T06:24:36.503Z,100341.63
2023-12-30T06:27:06.970Z,100347.75
2023-12-30T06:29:35.450Z,100351.06
2023-12-30T06:32:04.507Z,100347.53
2023-12-30T06:34:34.007Z,100358.00
2023-12-30T06:37:03.612Z,100353.91
2023-12-30T06:39:32.171Z,100359.50
2023-12-30T06:42:02.015Z,100367.28
2023-12-30T06:44:31.623Z,100375.84
2023-12-30T06:47:00.261Z,100381.59
2023-12-30T06:49:28.314Z,100384.91
2023-12-30T06:51:57.353Z,100373.97
2023-12-30T06:54:26.354Z,100379.25
2023-12-30T06:56:54.982Z,100377.53
2023-12-30T06:59:24.334Z,100385.16
2023-12-30T07:01:55.071Z,100386.16
2023-12-30T07:04:27.566Z,100387.94
2023-12-30T07:06:55.485Z,100390.06
2023-12-30T07:09:24.655Z,100392.06
2023-12-30T07:11:52.589Z,100390.88
2023-12-30T07:14:20.616Z,100391.44
2023-12-30T07:16:51.146Z,100398.19
2023-12-30T07:19:20.674Z,100399.13
2023-12-30T07:21:49.242Z,100407.72
2023-12-30T07:24:17.132Z,100405.06
2023-12-30T07:26:45.484Z,100406.78
2023-12-30T07:29:13.791Z,100403.94
2023-12-30T07:31:41.921Z,100407.22
2023-12-30T07:34:10.005Z,100406.19
2023-12-30T07:36:40.667Z,100410.59
2023-12-30T07:39:09.627Z,100409.81
2023-12-30T07:41:38.557Z,100413.28
2023-12-30T07:44:07.654Z,100412.06
2023-12-30T07:46:35.841Z,100412.00
2023-12-30T07:49:04.316Z,100418.16
2023-12-30T07:51:32.276Z,100416.59
2023-12-30T07:54:01.392Z,100415.66
2023-12-30T07:56:29.085Z,100417.41
2023-12-30T07:58:56.765Z,100417.34
2023-12-30T08:01:25.530Z,100424.00
2023-12-30T08:03:53.879Z,100414.38
2023-12-30T08:06:21.675Z,100428.19
2023-12-30T08:08:49.957Z,100423.34
2023-12-30T08:11:19.189Z,100424.97
2023-12-30T08:13:46.870Z,100429.03
2023-12-30T08:16:14.735Z,100426.38
2023-12-30T08:18:42.808Z,100428.97
2023-12-30T08:21:10.762Z,100423.88
2023-12-30T08:23:39.174Z,100417.06
2023-12-30T08:26:07.426Z,100414.91
2023-12-30T08:28:37.370Z,100412.00
2023-12-30T08:31:05.457Z,100408.53
2023-12-30T08:33:33.915Z,100400.44
2023-12-30T08:36:01.748Z,100393.28
2023-12-30T08:38:32.911Z,100395.81
2023-12-30T08:41:01.045Z,100404.00
2023-12-30T08:43:29.295Z,100410.72
2023-12-30T08:45:59.198Z,100407.25
2023-12-30T08:48:27.337Z,100402.72
2023-12-30T08:50:55.443Z,100410.63
2023-12-30T08:53:26.052Z,100411.53
2023-12-30T08:55:54.951Z,100404.56
2023-12-30T08:58:25.296Z,100412.38
2023-12-30T09:00:54.359Z,100410.69
2023-12-30T09:03:24.145Z,100418.13
2023-12-30T09:05:52.067Z,100418.16
2023-12-30T09:08:20.391Z,100423.19
2023-12-30T09:10:48.366Z,100425.38
2023-12-30T09:13:16.241Z,100433.28
2023-12-30T09:15:44.093Z,100431.13
2023-12-30T09:18:14.960Z,100427.63
2023-12-30T09:20:45.587Z,100428.59
2023-12-30T09:23:13.819Z,100434.09
2023-12-30T09:25:41.596Z,100436.56
2023-12-30T09:28:09.454Z,100439.69
2023-12-30T09:30:37.764Z,100437.97
2023-12-30T09:33:08.360Z,100439.09
2023-12-30T09:35:38.028Z,100443.31
2023-12-30T09:38:07.559Z,100445.00
2023-12-30T09:40:36.079Z,100451.81
2023-12-30T09:43:07.308Z,100449.69
2023-12-30T09:45:39.181Z,100457.50
2023-12-30T09:48:10.606Z,100455.25
2023-12-30T09:50:38.876Z,100443.28
2023-12-30T09:53:07.945Z,100457.44
2023-12-30T09:55:35.707Z,100449.63
2023-12-30T09:58:04.748Z,100445.28
2023-12-30T10:00:33.991Z,100452.16
2023-12-30T10:03:04.655Z,100456.22
2023-12-30T10:05:32.887Z,100444.13
2023-12-30T10:08:00.857Z,100443.56
2023-12-30T10:10:44.632Z,100446.22
2023-12-30T10:13:13.807Z,100447.13
2023-12-30T10:15:43.390Z,100451.59
2023-12-30T10:18:11.743Z,100446.47
2023-12-30T10:20:43.363Z,100445.56
2023-12-30T10:23:11.574Z,100443.75
2023-12-30T10:25:39.662Z,100445.88
2023-12-30T10:28:09.206Z,100452.94
2023-12-30T10:30:37.526Z,100458.03
2023-12-30T10:33:10.718Z,100455.66
2023-12-30T10:35:40.959Z,100458.56
2023-12-30T10:38:09.537Z,100452.59
2023-12-30T10:40:37.584Z,100455.72
2023-12-30T10:43:05.894Z,100456.75
2023-12-30T10:45:35.627Z,100459.06
2023-12-30T10:48:05.870Z,100456.19
2023-12-30T10:50:35.013Z,100459.94
2023-12-30T10:53:08.463Z,100451.25
2023-12-30T10:55:38.288Z,100455.66
2023-12-30T10:58:14.788Z,100456.69
2023-12-30T11:00:45.288Z,100458.88
2023-12-30T11:03:14.066Z,100450.84
2023-12-30T11:06:30.011Z,100453.34
2023-12-30T11:09:08.707Z,100441.59
2023-12-30T11:11:42.150Z,100437.94
2023-12-30T11:14:13.697Z,100441.69
2023-12-30T11:16:42.804Z,100448.78
2023-12-30T11:19:11.026Z,100453.31
2023-12-30T11:21:43.854Z,100435.91
2023-12-30T11:24:13.681Z,100434.06
2023-12-30T11:26:45.944Z,100434.53
2023-12-30T11:29:16.133Z,100435.41
2023-12-30T11:31:46.542Z,100433.53
2023-12-30T11:34:16.378Z,100429.91
2023-12-30T11:36:44.737Z,100429.00
2023-12-30T11:39:17.092Z,100429.09
2023-12-30T11:41:45.107Z,100421.13
2023-12-30T11:44:13.007Z,100413.66
2023-12-30T11:46:42.732Z,100404.63
2023-12-30T11:49:11.840Z,100411.78
2023-12-30T11:51:39.585Z,100395.13
2023-12-30T11:54:07.524Z,100388.91
2023-12-30T11:56:35.959Z,100385.78
2023-12-30T11:59:04.825Z,100380.13
2023-12-30T12:01:34.377Z,100372.44
2023-12-30T12:04:02.322Z,100370.34
2023-12-30T12:06:32.620Z,100367.38
2023-12-30T12:09:03.506Z,100365.66
2023-12-30T12:11:32.049Z,100366.13
2023-12-30T12:14:00.073Z,100361.47
2023-12-30T12:16:30.260Z,100359.72
2023-12-30T12:19:00.894Z,100352.94
2023-12-30T12:21:29.209Z,100357.81
2023-12-30T12:23:58.407Z,100353.44
2023-12-30T12:26:26.898Z,100341.66
2023-12-30T12:28:56.410Z,100334.56
2023-12-30T12:31:24.262Z,100319.09
2023-12-30T12:33:52.374Z,100318.47
2023-12-30T12:36:20.579Z,100315.66
2023-12-30T12:38:50.848Z,100325.34
2023-12-30T12:41:20.070Z,100322.88
2023-12-30T12:43:47.929Z,100330.91
2023-12-30T12:46:16.373Z,100330.00
2023-12-30T12:48:44.330Z,100330.34
2023-12-30T12:51:12.223Z,100333.44
2023-12-30T12:53:40.807Z,100330.91
2023-12-30T12:56:09.853Z,100332.25
2023-12-30T12:58:39.562Z,100326.19
2023-12-30T13:01:08.643Z,100332.47
2023-12-30T13:03:37.117Z,100333.56
2023-12-30T13:06:13.581Z,100333.22
2023-12-30T13:08:42.659Z,100326.56
2023-12-30T13:11:10.764Z,100329.78
2023-12-30T13:13:39.900Z,100336.69
2023-12-30T13:16:08.358Z,100332.94
2023-12-30T13:18:36.117Z,100325.66
2023-12-30T13:21:07.247Z,100323.88
2023-12-30T13:23:35.414Z,100329.84
2023-12-30T13:26:05.906Z,100329.84
2023-12-30T13:28:34.492Z,100334.25
2023-12-30T13:31:06.782Z,100334.00
2023-12-30T13:33:37.441Z,100335.38
2023-12-30T13:38:56.096Z,100333.31
2023-12-30T13:41:49.394Z,100321.84
2023-12-30T13:44:17.272Z,100314.56
2023-12-30T13:47:01.578Z,100320.56
2023-12-30T13:50:00.840Z,100311.19
2023-12-30T13:52:30.021Z,100314.19
2023-12-30T13:54:58.677Z,100312.44
2023-12-30T13:57:29.940Z,100307.88
2023-12-30T14:00:02.817Z,100313.59
2023-12-30T14:02:40.344Z,100297.72
2023-12-30T14:05:17.054Z,100296.56
2023-12-30T14:07:45.267Z,100295.53
2023-12-30T14:10:19.357Z,100289.91
2023-12-30T14:12:49.957Z,100300.22
2023-12-30T14:15:21.593Z,100308.16
2023-12-30T14:20:50.569Z,100309.06
2023-12-30T14:23:20.676Z,100302.22
2023-12-30T14:25:50.080Z,100303.59
2023-12-30T14:28:18.391Z,100287.53
2023-12-30T14:30:49.567Z,100287.41
2023-12-30T14:33:21.972Z,100290.00
2023-12-30T14:35:50.352Z,100297.81
2023-12-30T14:38:19.761Z,100303.16
2023-12-30T14:40:48.293Z,100300.53
2023-12-30T14:43:17.523Z,100291.75
2023-12-30T14:45:49.981Z,100294.31
2023-12-30T14:48:19.442Z,100294.31
2023-12-30T14:50:47.407Z,100285.69
2023-12-30T14:53:15.691Z,100276.94
2023-12-30T14:55:43.925Z,100278.84
2023-12-30T14:58:12.052Z,100279.53
2023-12-30T15:00:40.130Z,100279.34
2023-12-30T15:03:08.441Z,100273.28
2023-12-30T15:05:40.067Z,100270.19
2023-12-30T15:08:08.919Z,100280.78
2023-12-30T15:10:37.694Z,100280.03
2023-12-30T15:13:06.814Z,100276.66
2023-12-30T15:15:35.760Z,100280.31
2023-12-30T15:18:07.318Z,100279.06
2023-12-30T15:20:35.400Z,100271.78
2023-12-30T15:23:05.519Z,100274.22
2023-12-30T15:25:34.861Z,100278.44
2023-12-30T15:28:04.979Z,100280.88
2023-12-30T15:30:33.143Z,100279.94
2023-12-30T15:33:01.692Z,100271.56
2023-12-30T15:35:30.618Z,100265.13
2023-12-30T15:37:59.899Z,100272.66
2023-12-30T15:40:29.605Z,100277.78
2023-12-30T15:42:58.229Z,100280.09
2023-12-30T15:45:26.805Z,100287.56
2023-12-30T15:47:54.818Z,100280.94
2023-12-30T15:50:24.232Z,100298.59
2023-12-30T15:52:52.533Z,100288.16
2023-12-30T15:55:21.031Z,100290.94
2023-12-30T15:57:51.482Z,100289.47
2023-12-30T16:00:20.314Z,100288.13
2023-12-30T16:02:49.324Z,100280.97
2023-12-30T16:05:17.379Z,100289.47
2023-12-30T16:07:45.649Z,100283.09
2023-12-30T16:10:13.772Z,100286.13
2023-12-30T16:12:41.783Z,100288.13
2023-12-30T16:15:12.255Z,100288.03
2023-12-30T16:17:40.439Z,100276.13
2023-12-30T16:20:10.743Z,100285.88
2023-12-30T16:22:39.471Z,100290.53
2023-12-30T16:25:08.177Z,100284.72
2023-12-30T16:27:36.186Z,100274.47
2023-12-30T16:30:05.131Z,100275.88
2023-12-30T16:32:34.612Z,100268.72
2023-12-30T16:35:02.804Z,100273.22
2023-12-30T16:37:31.014Z,100283.13
2023-12-30T16:40:00.090Z,100271.53
2023-12-30T16:42:28.017Z,100271.78
2023-12-30T16:44:55.900Z,100271.09
2023-12-30T16:47:24.195Z,100272.56
2023-12-30T16:49:53.559Z,100267.88
2023-12-30T16:52:21.482Z,100260.56
2023-12-30T16:54:49.878Z,100269.78
2023-12-30T16:57:17.833Z,100253.13
2023-12-30T16:59:48.700Z,100258.34
2023-12-30T17:02:16.556Z,100268.97
2023-12-30T17:04:44.584Z,100267.09
2023-12-30T17:07:14.157Z,100264.84
2023-12-30T17:09:43.906Z,100275.06
2023-12-30T17:12:11.761Z,100263.44
2023-12-30T17:14:39.826Z,100260.53
2023-12-30T17:17:08.250Z,100257.06
2023-12-30T17:19:36.153Z,100258.16
2023-12-30T17:22:04.081Z,100261.84
2023-12-30T17:24:34.286Z,100253.97
2023-12-30T17:27:04.283Z,100258.06
2023-12-30T17:29:33.741Z,100242.34
2023-12-30T17:32:01.678Z,100242.22
2023-12-30T17:34:29.411Z,100240.78
2023-12-30T17:36:57.785Z,100232.91
2023-12-30T17:39:26.798Z,100229.91
2023-12-30T17:41:56.284Z,100231.00
2023-12-30T17:44:24.535Z,100223.72
2023-12-30T17:46:52.277Z,100235.06
2023-12-30T17:49:20.450Z,100239.28
2023-12-30T17:51:48.254Z,100243.53
2023-12-30T17:54:16.155Z,100239.81
2023-12-30T17:56:43.843Z,100246.44
2023-12-30T17:59:13.900Z,100252.09
2023-12-30T18:01:42.007Z,100254.63
2023-12-30T18:04:10.037Z,100246.44
2023-12-30T18:06:39.113Z,100246.81
2023-12-30T18:09:07.356Z,100246.44
2023-12-30T18:11:37.323Z,100246.72
2023-12-30T18:14:05.202Z,100241.03
2023-12-30T18:16:34.884Z,100250.56
2023-12-30T18:19:02.727Z,100251.00
2023-12-30T18:21:30.843Z,100237.97
2023-12-30T18:23:58.686Z,100246.31
2023-12-30T18:26:26.475Z,100254.00
2023-12-30T18:28:54.249Z,100250.81
2023-12-30T18:31:22.308Z,100247.72
2023-12-30T18:33:53.607Z,100241.84
2023-12-30T18:36:21.676Z,100242.78
2023-12-30T18:38:49.441Z,100251.03
2023-12-30T18:41:17.298Z,100236.97
2023-12-30T18:43:45.205Z,100245.09
2023-12-30T18:46:13.549Z,100234.47
2023-12-30T18:48:41.594Z,100235.22
2023-12-30T18:51:11.786Z,100233.59
2023-12-30T18:53:39.649Z,100244.94
2023-12-30T18:56:07.846Z,100237.81
2023-12-30T18:58:35.643Z,100236.56
2023-12-30T19:01:03.975Z,100236.72
2023-12-30T19:03:32.218Z,100232.53
2023-12-30T19:06:00.010Z,100232.53
2023-12-30T19:08:31.392Z,100232.69
2023-12-30T19:10:59.694Z,100228.41
2023-12-30T19:13:27.698Z,100230.88
2023-12-30T19:15:56.036Z,100217.88
2023-12-30T19:18:24.490Z,100214.13
2023-12-30T19:20:54.879Z,100215.91
2023-12-30T19:23:22.810Z,100216.88
2023-12-30T19:25:52.262Z,100211.53
2023-12-30T19:28:20.703Z,100206.78
2023-12-30T19:30:48.652Z,100206.75
2023-12-30T19:33:16.914Z,100203.16
2023-12-30T19:35:45.412Z,100194.34
2023-12-30T19:38:13.652Z,100186.72
2023-12-30T19:40:45.802Z,100186.03
2023-12-30T19:43:16.173Z,100177.31
2023-12-30T19:45:44.361Z,100183.34
2023-12-30T19:48:12.438Z,100181.03
2023-12-30T19:50:44.308Z,100175.94
2023-12-30T19:53:14.193Z,100168.75
2023-12-30T19:55:42.192Z,100161.47
2023-12-30T19:58:10.508Z,100158.75
2023-12-30T20:00:39.890Z,100155.00
2023-12-30T20:03:12.032Z,100155.00
2023-12-30T20:05:40.200Z,100149.81
2023-12-30T20:08:08.524Z,100154.00
2023-12-30T20:10:36.623Z,100147.13
2023-12-30T20:13:06.318Z,100147.41
2023-12-30T20:15:35.495Z,100138.75
2023-12-30T20:18:05.952Z,100142.09
2023-12-30T20:20:34.189Z,100139.50
2023-12-30T20:23:02.225Z,100135.53
2023-12-30T20:25:32.157Z,100132.25
2023-12-30T20:28:01.303Z,100136.47
2023-12-30T20:30:29.263Z,100134.94
2023-12-30T20:32:57.147Z,100132.44
2023-12-30T20:35:26.728Z,100133.59
2023-12-30T20:37:55.048Z,100134.66
2023-12-30T20:40:23.397Z,100128.72
2023-12-30T20:42:51.840Z,100128.03
2023-12-30T20:45:19.818Z,100124.00
2023-12-30T20:47:47.783Z,100122.56
2023-12-30T20:50:15.721Z,100119.38
2023-12-30T20:52:44.991Z,100116.91
2023-12-30T20:55:15.283Z,100122.91
2023-12-30T20:57:43.425Z,100115.22
2023-12-30T21:00:14.292Z,100117.88
2023-12-30T21:02:43.243Z,100116.94
2023-12-30T21:05:11.664Z,100104.84
2023-12-30T21:07:39.553Z,100100.50
2023-12-30T21:10:10.269Z,100101.38
2023-12-30T21:12:38.245Z,100093.78
2023-12-30T21:15:07.069Z,100092.88
2023-12-30T21:17:35.373Z,100086.78
2023-12-30T21:20:06.113Z,100086.66
2023-12-30T21:22:33.940Z,100090.00
2023-12-30T21:25:11.507Z,100089.19
2023-12-30T21:27:45.695Z,100087.25
2023-12-30T21:30:14.607Z,100079.22
2023-12-30T21:32:42.523Z,100074.22
2023-12-30T21:35:11.793Z,100081.47
2023-12-30T21:37:45.442Z,100072.13
2023-12-30T21:40:16.339Z,100073.81
2023-12-30T21:42:45.681Z,100073.56
2023-12-30T21:45:13.493Z,100063.16
2023-12-30T21:47:41.644Z,100067.41
2023-12-30T21:50:11.148Z,100056.03
2023-12-30T21:52:39.686Z,100061.31
2023-12-30T21:55:08.534Z,100054.66
2023-12-30T21:57:36.546Z,100061.94
2023-12-30T22:00:06.791Z,100064.59
2023-12-30T22:02:35.523Z,100058.91
2023-12-30T22:05:03.573Z,100055.53
2023-12-30T22:07:31.952Z,100056.63
2023-12-30T22:10:00.833Z,100056.97
2023-12-30T22:12:32.247Z,100053.75
2023-12-30T22:15:00.651Z,100056.56
2023-12-30T22:17:29.944Z,100056.50
2023-12-30T22:19:59.730Z,100049.81
2023-12-30T22:22:27.755Z,100051.63
2023-12-30T22:24:55.729Z,100043.88
2023-12-30T22:27:23.593Z,100049.03
2023-12-30T22:29:51.543Z,100050.03
2023-12-30T22:32:19.715Z,100042.31
2023-12-30T22:34:49.306Z,100040.63
2023-12-30T22:37:17.706Z,100040.44
2023-12-30T22:39:45.685Z,100034.41
2023-12-30T22:42:13.503Z,100032.44
2023-12-30T22:44:41.385Z,100029.34
2023-12-30T22:47:09.178Z,100023.88
2023-12-30T22:49:39.156Z,100024.78
2023-12-30T22:52:09.177Z,100029.03
2023-12-30T22:54:41.345Z,100018.75
2023-12-30T22:57:09.889Z,100012.44
2023-12-30T22:59:38.272Z,100010.19
2023-12-30T23:02:06.511Z,100009.47
2023-12-30T23:04:34.380Z,100011.41
2023-12-30T23:07:02.926Z,100005.63
2023-12-30T23:09:32.344Z,100001.56
2023-12-30T23:12:00.094Z,100001.72
2023-12-30T23:14:27.867Z,99995.72
2023-12-30T23:16:55.682Z,99987.03
2023-12-30T23:19:23.690Z,99984.44
2023-12-30T23:21:51.734Z,99974.09
2023-12-30T23:24:19.421Z,99971.69
2023-12-30T23:26:48.716Z,99963.09
2023-12-30T23:29:16.943Z,99967.56
2023-12-30T23:31:45.729Z,99955.44
2023-12-30T23:34:13.887Z,99952.00
2023-12-30T23:36:42.292Z,99948.44
2023-12-30T23:39:10.476Z,99941.13
2023-12-30T23:41:38.167Z,99932.28
2023-12-30T23:44:07.320Z,99927.09
2023-12-30T23:46:35.591Z,99929.03
2023-12-30T23:49:03.417Z,99920.69
2023-12-30T23:51:31.156Z,99919.25
2023-12-30T23:53:59.077Z,99917.88
2023-12-30T23:56:27.449Z,99915.53
2023-12-30T23:58:55.306Z,99906.19
